Search for airport 
image banner adimage banner ad
image banner ad

SVPL - Punta De Palmas

Located in La Canada Zulia, Venezuela

ICAO - SVPL, IATA -

Data provided by Airmate  

General information

Coordinates: N10°26'25" W71°37'45"
Elevation is 1050 feet MSL.
 
Rated:
View ratings: [VIEW]


View others Airports in Bolívar

Operational data

Open for public use
Current time UTC:
Current local time:
Weather at : SVMC - Maracaibo / La Chinita Intl ( 17 km )
TAF: TAF SVMC 211000Z 2112/2212 16004KT 9999 BNK016 TX32/19Z TN23/08Z PROB30 TEMPO 2112/2116 34005KT 6000 RA BKN016
View NOTAMs / SUP AIP / TFR affecting this airport [VIEW]
Communications frequencies: [VIEW]

Runways:

Airport contact information

Address: La Canada Zulia Venezuela

Satellite view of SVPL